createdAt,value
2019-04-21T00:01:08.347Z,9.85
2019-04-21T00:06:31.585Z,10.63
2019-04-21T00:11:36.483Z,11.88
2019-04-21T00:16:32.149Z,11.63
2019-04-21T00:21:36.502Z,11.20
2019-04-21T00:26:55.798Z,10.80
2019-04-21T00:31:56.621Z,10.20
2019-04-21T00:36:56.046Z,11.20
2019-04-21T00:42:12.916Z,10.28
2019-04-21T00:47:18.015Z,10.78
2019-04-21T01:07:55.413Z,11.55
2019-04-21T01:13:02.701Z,10.38
2019-04-21T01:18:04.845Z,10.35
2019-04-21T01:22:53.626Z,10.90
2019-04-21T01:28:13.524Z,12.55
2019-04-21T01:33:26.046Z,11.83
2019-04-21T01:38:35.708Z,11.70
2019-04-21T01:43:33.927Z,10.90
2019-04-21T01:48:40.317Z,11.95
2019-04-21T01:53:59.560Z,11.53
2019-04-21T01:58:51.463Z,11.97
2019-04-21T02:04:06.890Z,12.68
2019-04-21T02:09:09.805Z,10.58
2019-04-21T02:14:26.314Z,11.60
2019-04-21T02:19:26.177Z,11.05
2019-04-21T02:29:41.566Z,11.70
2019-04-21T02:35:07.909Z,11.55
2019-04-21T02:40:03.937Z,10.95
2019-04-21T02:45:09.481Z,12.75
2019-04-21T02:50:25.925Z,12.05
2019-04-21T02:55:15.585Z,12.88
2019-04-21T03:05:48.750Z,11.93
2019-04-21T03:16:04.969Z,12.05
2019-04-21T03:21:16.525Z,11.83
2019-04-21T03:26:22.815Z,12.90
2019-04-21T03:36:39.875Z,11.57
2019-04-21T03:41:50.576Z,12.13
2019-04-21T03:47:01.742Z,13.70
2019-04-21T03:52:03.783Z,12.85
2019-04-21T04:02:18.249Z,11.30
2019-04-21T04:12:48.362Z,11.45
2019-04-21T04:17:49.931Z,12.03
2019-04-21T04:23:02.954Z,10.70
2019-04-21T04:33:08.045Z,11.45
2019-04-21T04:38:26.651Z,11.25
2019-04-21T04:43:30.703Z,11.18
2019-04-21T04:48:43.406Z,10.75
2019-04-21T04:59:10.600Z,10.30
2019-04-21T05:09:03.374Z,11.53
2019-04-21T05:14:02.979Z,12.45
2019-04-21T05:24:01.333Z,12.78
2019-04-21T05:29:00.674Z,13.88
2019-04-21T05:34:22.029Z,12.98
2019-04-21T05:39:48.999Z,14.18
2019-04-21T05:45:01.695Z,15.60
2019-04-21T05:50:06.239Z,15.43
2019-04-21T05:55:19.971Z,15.55
2019-04-21T06:00:23.064Z,16.50
2019-04-21T06:05:36.780Z,15.60
2019-04-21T06:10:45.849Z,15.90
2019-04-21T06:15:45.512Z,13.75
2019-04-21T06:20:46.791Z,11.70
2019-04-21T06:26:08.269Z,13.72
2019-04-21T06:36:39.600Z,13.00
2019-04-21T06:41:34.346Z,11.03
2019-04-21T06:46:48.950Z,11.45
2019-04-21T06:51:45.457Z,10.95
2019-04-21T06:56:56.594Z,10.50
2019-04-21T07:02:13.407Z,10.32
2019-04-21T07:07:05.166Z,10.18
2019-04-21T07:12:06.102Z,10.78
2019-04-21T07:17:26.949Z,9.40
2019-04-21T07:22:24.958Z,10.13
2019-04-21T07:32:38.133Z,10.35
2019-04-21T07:37:41.573Z,9.85
2019-04-21T07:42:42.890Z,10.03
2019-04-21T07:47:55.176Z,9.50
2019-04-21T07:53:16.459Z,10.23
2019-04-21T07:58:17.764Z,11.00
2019-04-21T08:03:24.757Z,9.30
2019-04-21T08:08:26.377Z,9.90
2019-04-21T08:18:44.225Z,10.08
2019-04-21T08:23:41.466Z,9.25
2019-04-21T08:28:55.407Z,8.95
2019-04-21T08:34:01.999Z,9.15
2019-04-21T08:39:03.229Z,10.30
2019-04-21T08:44:18.503Z,9.43
2019-04-21T08:49:13.396Z,9.20
2019-04-21T08:54:22.022Z,9.45
2019-04-21T08:59:54.846Z,9.88
2019-04-21T09:04:55.557Z,10.43
2019-04-21T09:09:59.333Z,9.33
2019-04-21T09:15:04.678Z,9.35
2019-04-21T09:20:17.277Z,9.20
2019-04-21T09:25:21.191Z,8.48
2019-04-21T09:30:06.484Z,8.18
2019-04-21T09:35:12.450Z,7.58
2019-04-21T09:40:16.856Z,8.28
2019-04-21T09:45:22.941Z,7.95
2019-04-21T09:50:27.863Z,6.50
2019-04-21T10:00:46.180Z,6.95
2019-04-21T10:05:43.136Z,6.70
2019-04-21T10:10:48.976Z,7.20
2019-04-21T10:16:10.884Z,6.60
2019-04-21T10:21:15.437Z,6.22
2019-04-21T10:26:19.758Z,6.90
2019-04-21T10:31:24.940Z,6.67
2019-04-21T10:36:30.951Z,6.03
2019-04-21T10:41:35.225Z,6.87
2019-04-21T10:46:40.497Z,7.65
2019-04-21T10:51:44.800Z,6.95
2019-04-21T10:56:49.520Z,6.22
2019-04-21T11:01:55.169Z,7.03
2019-04-21T11:12:06.261Z,6.35
2019-04-21T11:17:10.587Z,6.83
2019-04-21T11:22:16.743Z,6.95
2019-04-21T11:27:22.539Z,6.62
2019-04-21T11:32:27.364Z,7.00
2019-04-21T11:37:34.610Z,7.95
2019-04-21T11:42:41.750Z,6.62
2019-04-21T11:48:06.263Z,7.40
2019-04-21T11:53:10.715Z,6.25
2019-04-21T11:58:15.993Z,6.58
2019-04-21T12:03:20.778Z,6.20
2019-04-21T12:08:34.385Z,5.53
2019-04-21T12:13:32.565Z,6.10
2019-04-21T12:18:37.010Z,5.97
2019-04-21T12:28:45.878Z,5.67
2019-04-21T12:33:56.333Z,4.90
2019-04-21T12:39:03.306Z,6.70
2019-04-21T12:44:08.986Z,6.58
2019-04-21T12:49:22.886Z,5.87
2019-04-21T12:54:27.915Z,6.33
2019-04-21T12:59:35.900Z,5.55
2019-04-21T13:04:42.242Z,5.08
2019-04-21T13:09:48.466Z,4.40
2019-04-21T13:15:39.676Z,4.33
2019-04-21T13:20:44.639Z,4.90
2019-04-21T13:25:54.131Z,5.62
2019-04-21T13:31:26.510Z,5.15
2019-04-21T13:36:33.822Z,5.40
2019-04-21T13:41:50.584Z,4.70
2019-04-21T13:46:49.345Z,5.55
2019-04-21T13:51:54.180Z,4.97
2019-04-21T13:57:00.550Z,5.35
2019-04-21T14:02:06.895Z,5.10
2019-04-21T14:07:12.230Z,4.22
2019-04-21T14:12:38.292Z,3.42
2019-04-21T14:17:43.147Z,4.40
2019-04-21T14:22:49.610Z,4.33
2019-04-21T14:27:55.689Z,5.22
2019-04-21T14:33:00.285Z,4.22
2019-04-21T14:38:04.859Z,4.95
2019-04-21T14:48:30.546Z,4.28
2019-04-21T14:53:49.782Z,4.20
2019-04-21T14:58:57.308Z,4.75
2019-04-21T15:04:01.620Z,4.80
2019-04-21T15:09:09.130Z,4.87
2019-04-21T15:14:15.798Z,4.15
2019-04-21T15:19:20.462Z,4.53
2019-04-21T15:29:28.934Z,3.98
2019-04-21T15:34:34.018Z,4.33
2019-04-21T15:39:38.475Z,4.17
2019-04-21T15:50:04.733Z,4.40
2019-04-21T15:55:14.682Z,4.50
2019-04-21T16:00:32.327Z,4.55
2019-04-21T16:05:44.568Z,3.87
2019-04-21T16:10:56.009Z,2.98
2019-04-21T16:15:59.319Z,3.87
2019-04-21T16:21:06.003Z,3.90
2019-04-21T16:26:15.201Z,4.30
2019-04-21T16:31:20.402Z,4.03
2019-04-21T16:36:29.569Z,4.03
2019-04-21T16:41:36.133Z,4.05
2019-04-21T16:46:43.276Z,3.42
2019-04-21T16:51:52.307Z,3.95
2019-04-21T16:57:28.025Z,3.27
2019-04-21T17:02:36.716Z,3.98
2019-04-21T17:07:45.119Z,3.58
2019-04-21T17:12:51.292Z,4.12
2019-04-21T17:18:16.239Z,3.67
2019-04-21T17:23:04.085Z,3.62
2019-04-21T17:28:08.147Z,3.30
2019-04-21T17:33:16.197Z,3.52
2019-04-21T17:38:21.782Z,3.58
2019-04-21T17:43:26.043Z,3.25
2019-04-21T17:48:31.298Z,3.17
2019-04-21T17:53:53.799Z,3.50
2019-04-21T17:59:24.241Z,3.50
2019-04-21T18:04:28.516Z,4.08
2019-04-21T18:09:37.484Z,4.30
2019-04-21T18:14:20.718Z,5.12
2019-04-21T18:19:28.709Z,4.78
2019-04-21T18:24:40.930Z,4.35
2019-04-21T18:29:42.361Z,4.70
2019-04-21T18:35:29.292Z,4.28
2019-04-21T18:40:36.876Z,4.58
2019-04-21T18:46:13.682Z,3.77
2019-04-21T18:51:45.156Z,4.20
2019-04-21T18:56:31.495Z,3.67
2019-04-21T19:01:38.383Z,4.40
2019-04-21T19:07:00.821Z,4.47
2019-04-21T19:12:07.666Z,4.83
2019-04-21T19:22:20.499Z,4.65
2019-04-21T19:27:50.250Z,4.20
2019-04-21T19:32:59.484Z,4.53
2019-04-21T19:37:55.194Z,3.92
2019-04-21T19:43:02.898Z,4.60
2019-04-21T19:48:13.659Z,3.80
2019-04-21T19:53:20.120Z,4.25
2019-04-21T19:58:10.751Z,5.42
2019-04-21T20:03:16.500Z,10.00
2019-04-21T20:08:36.271Z,11.28
2019-04-21T20:14:27.564Z,9.00
2019-04-21T20:18:40.471Z,10.53
2019-04-21T20:23:41.471Z,10.45
2019-04-21T20:28:58.812Z,10.28
2019-04-21T20:34:11.187Z,12.33
2019-04-21T20:39:06.020Z,10.40
2019-04-21T20:44:18.437Z,11.18
2019-04-21T20:49:23.081Z,11.20
2019-04-21T20:54:30.107Z,10.60
2019-04-21T20:59:32.701Z,11.43
2019-04-21T21:04:37.699Z,11.05
2019-04-21T21:09:57.462Z,11.70
2019-04-21T21:14:50.259Z,12.15
2019-04-21T21:20:07.746Z,12.30
2019-04-21T21:25:18.893Z,11.83
2019-04-21T21:30:14.594Z,11.28
2019-04-21T21:35:19.237Z,11.85
2019-04-21T21:40:34.927Z,11.68
2019-04-21T21:45:22.242Z,11.93
2019-04-21T21:50:39.879Z,11.85
2019-04-21T21:55:32.802Z,11.80
2019-04-21T22:00:43.137Z,11.83
2019-04-21T22:05:50.398Z,11.95
2019-04-21T22:10:50.357Z,11.97
2019-04-21T22:16:00.289Z,11.78
2019-04-21T22:21:12.795Z,11.55
2019-04-21T22:26:07.366Z,12.13
2019-04-21T22:31:15.261Z,10.53
2019-04-21T22:36:31.268Z,11.25
2019-04-21T22:41:30.972Z,10.95
2019-04-21T22:46:30.635Z,11.55
2019-04-21T22:51:38.938Z,12.45
2019-04-21T22:56:52.845Z,12.25
2019-04-21T23:01:50.436Z,11.20
2019-04-21T23:06:56.579Z,12.05
2019-04-21T23:12:01.306Z,12.70
2019-04-21T23:17:29.157Z,11.75
2019-04-21T23:22:29.511Z,11.18
2019-04-21T23:27:33.727Z,11.08
2019-04-21T23:32:36.321Z,12.15
2019-04-21T23:37:34.115Z,10.98
2019-04-21T23:42:40.071Z,11.55
2019-04-21T23:47:53.611Z,11.08
2019-04-21T23:52:48.068Z,11.45
2019-04-21T23:58:04.994Z,10.98
